sensor_id;sensor_type;location;lat;lon;timestamp;P1;durP1;ratioP1;P2;durP2;ratioP2
27495;SDS011;14929;51.336;9.416;2023-05-21T00:02:05;5.93;;;5.30;;
27495;SDS011;14929;51.336;9.416;2023-05-21T00:04:35;4.85;;;4.45;;
27495;SDS011;14929;51.336;9.416;2023-05-21T00:07:04;5.40;;;4.93;;
27495;SDS011;14929;51.336;9.416;2023-05-21T00:09:32;5.18;;;4.78;;
27495;SDS011;14929;51.336;9.416;2023-05-21T00:12:00;4.85;;;4.45;;
27495;SDS011;14929;51.336;9.416;2023-05-21T00:14:27;5.18;;;3.85;;
27495;SDS011;14929;51.336;9.416;2023-05-21T00:16:56;3.85;;;3.55;;
27495;SDS011;14929;51.336;9.416;2023-05-21T00:19:24;4.55;;;3.97;;
27495;SDS011;14929;51.336;9.416;2023-05-21T00:21:51;4.78;;;4.38;;
27495;SDS011;14929;51.336;9.416;2023-05-21T00:24:19;5.32;;;4.82;;
27495;SDS011;14929;51.336;9.416;2023-05-21T00:26:47;6.50;;;5.88;;
27495;SDS011;14929;51.336;9.416;2023-05-21T00:29:14;7.70;;;4.57;;
27495;SDS011;14929;51.336;9.416;2023-05-21T00:31:42;5.28;;;4.78;;
27495;SDS011;14929;51.336;9.416;2023-05-21T00:34:11;5.07;;;4.57;;
27495;SDS011;14929;51.336;9.416;2023-05-21T00:36:38;5.22;;;4.72;;
27495;SDS011;14929;51.336;9.416;2023-05-21T00:39:09;4.95;;;4.55;;
27495;SDS011;14929;51.336;9.416;2023-05-21T00:41:37;5.22;;;4.82;;
27495;SDS011;14929;51.336;9.416;2023-05-21T00:44:07;5.30;;;4.80;;
27495;SDS011;14929;51.336;9.416;2023-05-21T00:46:34;4.85;;;4.35;;
27495;SDS011;14929;51.336;9.416;2023-05-21T00:49:02;6.00;;;5.50;;
27495;SDS011;14929;51.336;9.416;2023-05-21T00:51:32;4.75;;;4.32;;
27495;SDS011;14929;51.336;9.416;2023-05-21T00:53:59;4.18;;;3.83;;
27495;SDS011;14929;51.336;9.416;2023-05-21T00:56:27;6.40;;;4.38;;
27495;SDS011;14929;51.336;9.416;2023-05-21T00:58:55;4.82;;;4.43;;
27495;SDS011;14929;51.336;9.416;2023-05-21T01:01:22;4.70;;;4.30;;
27495;SDS011;14929;51.336;9.416;2023-05-21T01:03:51;4.60;;;4.20;;
27495;SDS011;14929;51.336;9.416;2023-05-21T01:06:21;4.18;;;3.78;;
27495;SDS011;14929;51.336;9.416;2023-05-21T01:08:50;4.13;;;3.78;;
27495;SDS011;14929;51.336;9.416;2023-05-21T01:11:18;4.25;;;3.95;;
27495;SDS011;14929;51.336;9.416;2023-05-21T01:13:47;5.15;;;4.70;;
27495;SDS011;14929;51.336;9.416;2023-05-21T01:16:15;5.90;;;5.38;;
27495;SDS011;14929;51.336;9.416;2023-05-21T01:18:42;6.03;;;5.43;;
27495;SDS011;14929;51.336;9.416;2023-05-21T01:21:10;4.93;;;4.53;;
27495;SDS011;14929;51.336;9.416;2023-05-21T01:23:42;4.63;;;4.22;;
27495;SDS011;14929;51.336;9.416;2023-05-21T01:26:10;5.18;;;4.68;;
27495;SDS011;14929;51.336;9.416;2023-05-21T01:28:37;7.13;;;6.10;;
27495;SDS011;14929;51.336;9.416;2023-05-21T01:31:10;5.13;;;4.72;;
27495;SDS011;14929;51.336;9.416;2023-05-21T01:33:46;5.50;;;5.10;;
27495;SDS011;14929;51.336;9.416;2023-05-21T01:36:16;6.10;;;5.50;;
27495;SDS011;14929;51.336;9.416;2023-05-21T01:38:50;5.70;;;5.20;;
27495;SDS011;14929;51.336;9.416;2023-05-21T01:41:22;5.53;;;5.03;;
27495;SDS011;14929;51.336;9.416;2023-05-21T01:43:51;4.50;;;4.10;;
27495;SDS011;14929;51.336;9.416;2023-05-21T01:46:20;5.63;;;5.10;;
27495;SDS011;14929;51.336;9.416;2023-05-21T01:48:50;5.30;;;4.82;;
27495;SDS011;14929;51.336;9.416;2023-05-21T01:51:18;5.85;;;5.38;;
27495;SDS011;14929;51.336;9.416;2023-05-21T01:53:46;5.20;;;4.75;;
27495;SDS011;14929;51.336;9.416;2023-05-21T01:56:15;5.70;;;5.18;;
27495;SDS011;14929;51.336;9.416;2023-05-21T01:58:42;6.38;;;5.50;;
27495;SDS011;14929;51.336;9.416;2023-05-21T02:01:10;6.72;;;5.80;;
27495;SDS011;14929;51.336;9.416;2023-05-21T02:03:37;5.68;;;5.18;;
27495;SDS011;14929;51.336;9.416;2023-05-21T02:06:04;5.70;;;5.20;;
27495;SDS011;14929;51.336;9.416;2023-05-21T02:08:32;4.97;;;4.57;;
27495;SDS011;14929;51.336;9.416;2023-05-21T02:10:59;4.75;;;4.35;;
27495;SDS011;14929;51.336;9.416;2023-05-21T02:13:28;5.30;;;4.80;;
27495;SDS011;14929;51.336;9.416;2023-05-21T02:15:56;5.53;;;4.85;;
27495;SDS011;14929;51.336;9.416;2023-05-21T02:18:25;5.80;;;5.10;;
27495;SDS011;14929;51.336;9.416;2023-05-21T02:20:53;5.70;;;5.20;;
27495;SDS011;14929;51.336;9.416;2023-05-21T02:23:20;6.95;;;5.57;;
27495;SDS011;14929;51.336;9.416;2023-05-21T02:25:48;5.10;;;4.70;;
27495;SDS011;14929;51.336;9.416;2023-05-21T02:28:15;4.95;;;4.43;;
27495;SDS011;14929;51.336;9.416;2023-05-21T02:30:44;4.38;;;4.07;;
27495;SDS011;14929;51.336;9.416;2023-05-21T02:33:11;5.65;;;5.18;;
27495;SDS011;14929;51.336;9.416;2023-05-21T02:35:39;5.70;;;5.22;;
27495;SDS011;14929;51.336;9.416;2023-05-21T02:38:07;5.47;;;4.95;;
27495;SDS011;14929;51.336;9.416;2023-05-21T02:40:37;5.85;;;5.35;;
27495;SDS011;14929;51.336;9.416;2023-05-21T02:43:05;5.50;;;5.00;;
27495;SDS011;14929;51.336;9.416;2023-05-21T02:45:32;11.35;;;6.25;;
27495;SDS011;14929;51.336;9.416;2023-05-21T02:48:01;6.28;;;5.68;;
27495;SDS011;14929;51.336;9.416;2023-05-21T02:50:28;8.07;;;6.28;;
27495;SDS011;14929;51.336;9.416;2023-05-21T02:52:56;7.75;;;7.05;;
27495;SDS011;14929;51.336;9.416;2023-05-21T02:55:24;7.13;;;6.43;;
27495;SDS011;14929;51.336;9.416;2023-05-21T02:57:51;7.03;;;6.43;;
27495;SDS011;14929;51.336;9.416;2023-05-21T03:00:19;7.13;;;6.43;;
27495;SDS011;14929;51.336;9.416;2023-05-21T03:02:46;7.88;;;7.07;;
27495;SDS011;14929;51.336;9.416;2023-05-21T03:05:15;6.57;;;5.90;;
27495;SDS011;14929;51.336;9.416;2023-05-21T03:07:42;6.03;;;5.53;;
27495;SDS011;14929;51.336;9.416;2023-05-21T03:10:10;8.25;;;7.45;;
27495;SDS011;14929;51.336;9.416;2023-05-21T03:12:37;7.93;;;6.57;;
27495;SDS011;14929;51.336;9.416;2023-05-21T03:15:05;8.25;;;7.45;;
27495;SDS011;14929;51.336;9.416;2023-05-21T03:17:33;7.30;;;6.60;;
27495;SDS011;14929;51.336;9.416;2023-05-21T03:20:01;7.55;;;6.85;;
27495;SDS011;14929;51.336;9.416;2023-05-21T03:22:31;8.32;;;7.53;;
27495;SDS011;14929;51.336;9.416;2023-05-21T03:24:58;7.60;;;6.90;;
27495;SDS011;14929;51.336;9.416;2023-05-21T03:27:26;6.40;;;5.80;;
27495;SDS011;14929;51.336;9.416;2023-05-21T03:29:54;6.82;;;6.18;;
27495;SDS011;14929;51.336;9.416;2023-05-21T03:32:23;6.90;;;6.30;;
27495;SDS011;14929;51.336;9.416;2023-05-21T03:34:50;6.70;;;6.05;;
27495;SDS011;14929;51.336;9.416;2023-05-21T03:37:18;7.07;;;6.40;;
27495;SDS011;14929;51.336;9.416;2023-05-21T03:39:46;7.95;;;7.20;;
27495;SDS011;14929;51.336;9.416;2023-05-21T03:42:14;6.22;;;5.63;;
27495;SDS011;14929;51.336;9.416;2023-05-21T03:44:41;6.68;;;6.07;;
27495;SDS011;14929;51.336;9.416;2023-05-21T03:47:09;8.27;;;7.55;;
27495;SDS011;14929;51.336;9.416;2023-05-21T03:49:36;12.57;;;7.60;;
27495;SDS011;14929;51.336;9.416;2023-05-21T03:52:04;9.20;;;8.38;;
27495;SDS011;14929;51.336;9.416;2023-05-21T03:54:31;8.75;;;7.93;;
27495;SDS011;14929;51.336;9.416;2023-05-21T03:57:00;7.38;;;6.68;;
27495;SDS011;14929;51.336;9.416;2023-05-21T03:59:27;8.50;;;6.63;;
27495;SDS011;14929;51.336;9.416;2023-05-21T04:01:55;8.35;;;6.75;;
27495;SDS011;14929;51.336;9.416;2023-05-21T04:04:22;7.82;;;7.13;;
27495;SDS011;14929;51.336;9.416;2023-05-21T04:06:50;7.78;;;7.00;;
27495;SDS011;14929;51.336;9.416;2023-05-21T04:09:18;7.75;;;7.07;;
27495;SDS011;14929;51.336;9.416;2023-05-21T04:11:45;7.15;;;6.47;;
27495;SDS011;14929;51.336;9.416;2023-05-21T04:14:14;9.02;;;8.20;;
27495;SDS011;14929;51.336;9.416;2023-05-21T04:16:42;8.70;;;7.82;;
27495;SDS011;14929;51.336;9.416;2023-05-21T04:19:09;7.90;;;7.20;;
27495;SDS011;14929;51.336;9.416;2023-05-21T04:21:36;8.52;;;7.72;;
27495;SDS011;14929;51.336;9.416;2023-05-21T04:24:04;7.85;;;7.05;;
27495;SDS011;14929;51.336;9.416;2023-05-21T04:26:31;7.30;;;6.70;;
27495;SDS011;14929;51.336;9.416;2023-05-21T04:28:59;8.32;;;7.63;;
27495;SDS011;14929;51.336;9.416;2023-05-21T04:31:30;7.97;;;7.25;;
27495;SDS011;14929;51.336;9.416;2023-05-21T04:33:58;7.43;;;6.68;;
27495;SDS011;14929;51.336;9.416;2023-05-21T04:36:25;7.47;;;6.78;;
27495;SDS011;14929;51.336;9.416;2023-05-21T04:38:54;8.27;;;7.57;;
27495;SDS011;14929;51.336;9.416;2023-05-21T04:41:21;7.88;;;7.13;;
27495;SDS011;14929;51.336;9.416;2023-05-21T04:43:49;8.63;;;7.78;;
27495;SDS011;14929;51.336;9.416;2023-05-21T04:46:19;7.85;;;7.10;;
27495;SDS011;14929;51.336;9.416;2023-05-21T04:48:51;7.88;;;7.07;;
27495;SDS011;14929;51.336;9.416;2023-05-21T04:51:19;7.05;;;6.43;;
27495;SDS011;14929;51.336;9.416;2023-05-21T04:53:48;8.20;;;7.50;;
27495;SDS011;14929;51.336;9.416;2023-05-21T04:56:16;8.77;;;7.88;;
27495;SDS011;14929;51.336;9.416;2023-05-21T04:58:43;8.65;;;7.90;;
27495;SDS011;14929;51.336;9.416;2023-05-21T05:01:11;8.07;;;6.90;;
27495;SDS011;14929;51.336;9.416;2023-05-21T05:03:39;8.13;;;7.40;;
27495;SDS011;14929;51.336;9.416;2023-05-21T05:06:08;8.38;;;7.35;;
27495;SDS011;14929;51.336;9.416;2023-05-21T05:08:35;7.15;;;6.45;;
27495;SDS011;14929;51.336;9.416;2023-05-21T05:11:03;8.50;;;7.32;;
27495;SDS011;14929;51.336;9.416;2023-05-21T05:13:30;8.25;;;7.45;;
27495;SDS011;14929;51.336;9.416;2023-05-21T05:15:58;8.95;;;7.78;;
27495;SDS011;14929;51.336;9.416;2023-05-21T05:18:26;8.02;;;7.32;;
27495;SDS011;14929;51.336;9.416;2023-05-21T05:20:54;8.20;;;7.40;;
27495;SDS011;14929;51.336;9.416;2023-05-21T05:23:23;9.15;;;8.25;;
27495;SDS011;14929;51.336;9.416;2023-05-21T05:25:50;11.20;;;10.07;;
27495;SDS011;14929;51.336;9.416;2023-05-21T05:28:18;10.43;;;9.32;;
27495;SDS011;14929;51.336;9.416;2023-05-21T05:30:45;8.43;;;7.68;;
27495;SDS011;14929;51.336;9.416;2023-05-21T05:33:13;7.65;;;6.95;;
27495;SDS011;14929;51.336;9.416;2023-05-21T05:35:40;6.97;;;6.28;;
27495;SDS011;14929;51.336;9.416;2023-05-21T05:38:08;7.00;;;6.30;;
27495;SDS011;14929;51.336;9.416;2023-05-21T05:40:37;6.80;;;5.95;;
27495;SDS011;14929;51.336;9.416;2023-05-21T05:43:05;7.40;;;6.75;;
27495;SDS011;14929;51.336;9.416;2023-05-21T05:45:32;9.50;;;8.60;;
27495;SDS011;14929;51.336;9.416;2023-05-21T05:48:00;7.50;;;6.80;;
27495;SDS011;14929;51.336;9.416;2023-05-21T05:50:27;9.32;;;7.80;;
27495;SDS011;14929;51.336;9.416;2023-05-21T05:52:55;9.00;;;7.75;;
27495;SDS011;14929;51.336;9.416;2023-05-21T05:55:22;6.22;;;5.65;;
27495;SDS011;14929;51.336;9.416;2023-05-21T05:57:52;7.25;;;6.50;;
27495;SDS011;14929;51.336;9.416;2023-05-21T06:00:19;8.75;;;7.35;;
27495;SDS011;14929;51.336;9.416;2023-05-21T06:02:47;10.05;;;8.50;;
27495;SDS011;14929;51.336;9.416;2023-05-21T06:05:14;7.30;;;6.60;;
27495;SDS011;14929;51.336;9.416;2023-05-21T06:07:42;8.07;;;7.35;;
27495;SDS011;14929;51.336;9.416;2023-05-21T06:10:09;8.25;;;7.03;;
27495;SDS011;14929;51.336;9.416;2023-05-21T06:12:37;6.88;;;6.28;;
27495;SDS011;14929;51.336;9.416;2023-05-21T06:15:06;7.20;;;6.60;;
27495;SDS011;14929;51.336;9.416;2023-05-21T06:17:35;6.93;;;6.32;;
27495;SDS011;14929;51.336;9.416;2023-05-21T06:20:02;7.25;;;6.57;;
27495;SDS011;14929;51.336;9.416;2023-05-21T06:22:31;10.15;;;8.60;;
27495;SDS011;14929;51.336;9.416;2023-05-21T06:24:58;8.77;;;7.97;;
27495;SDS011;14929;51.336;9.416;2023-05-21T06:27:26;9.07;;;8.25;;
27495;SDS011;14929;51.336;9.416;2023-05-21T06:29:54;8.25;;;7.50;;
27495;SDS011;14929;51.336;9.416;2023-05-21T06:32:24;8.52;;;7.72;;
27495;SDS011;14929;51.336;9.416;2023-05-21T06:34:51;7.85;;;7.20;;
27495;SDS011;14929;51.336;9.416;2023-05-21T06:37:19;8.07;;;7.13;;
27495;SDS011;14929;51.336;9.416;2023-05-21T06:39:47;8.65;;;7.75;;
27495;SDS011;14929;51.336;9.416;2023-05-21T06:42:14;8.20;;;7.40;;
27495;SDS011;14929;51.336;9.416;2023-05-21T06:44:42;9.13;;;8.18;;
27495;SDS011;14929;51.336;9.416;2023-05-21T06:47:10;9.18;;;8.38;;
27495;SDS011;14929;51.336;9.416;2023-05-21T06:49:39;8.75;;;7.88;;
27495;SDS011;14929;51.336;9.416;2023-05-21T06:52:06;8.15;;;7.43;;
27495;SDS011;14929;51.336;9.416;2023-05-21T06:54:34;7.10;;;6.40;;
27495;SDS011;14929;51.336;9.416;2023-05-21T06:57:01;7.10;;;6.50;;
27495;SDS011;14929;51.336;9.416;2023-05-21T06:59:29;9.32;;;8.43;;
27495;SDS011;14929;51.336;9.416;2023-05-21T07:01:56;9.35;;;8.55;;
27495;SDS011;14929;51.336;9.416;2023-05-21T07:04:24;10.13;;;9.13;;
27495;SDS011;14929;51.336;9.416;2023-05-21T07:06:53;11.07;;;9.98;;
27495;SDS011;14929;51.336;9.416;2023-05-21T07:09:20;9.65;;;8.75;;
27495;SDS011;14929;51.336;9.416;2023-05-21T07:11:48;9.05;;;7.93;;
27495;SDS011;14929;51.336;9.416;2023-05-21T07:14:16;7.30;;;6.60;;
27495;SDS011;14929;51.336;9.416;2023-05-21T07:16:44;9.23;;;8.32;;
27495;SDS011;14929;51.336;9.416;2023-05-21T07:19:11;7.70;;;7.00;;
27495;SDS011;14929;51.336;9.416;2023-05-21T07:21:40;8.10;;;7.30;;
27495;SDS011;14929;51.336;9.416;2023-05-21T07:24:09;11.77;;;10.65;;
27495;SDS011;14929;51.336;9.416;2023-05-21T07:26:36;8.85;;;7.63;;
27495;SDS011;14929;51.336;9.416;2023-05-21T07:29:04;8.40;;;7.70;;
27495;SDS011;14929;51.336;9.416;2023-05-21T07:31:31;9.80;;;8.88;;
27495;SDS011;14929;51.336;9.416;2023-05-21T07:33:59;11.18;;;10.18;;
27495;SDS011;14929;51.336;9.416;2023-05-21T07:36:26;9.45;;;8.65;;
27495;SDS011;14929;51.336;9.416;2023-05-21T07:38:55;8.68;;;7.90;;
27495;SDS011;14929;51.336;9.416;2023-05-21T07:41:23;12.18;;;11.05;;
27495;SDS011;14929;51.336;9.416;2023-05-21T07:43:51;11.93;;;10.60;;
27495;SDS011;14929;51.336;9.416;2023-05-21T07:46:19;10.10;;;8.98;;
27495;SDS011;14929;51.336;9.416;2023-05-21T07:48:46;11.60;;;10.50;;
27495;SDS011;14929;51.336;9.416;2023-05-21T07:51:14;9.00;;;8.20;;
27495;SDS011;14929;51.336;9.416;2023-05-21T07:53:41;11.52;;;10.43;;
27495;SDS011;14929;51.336;9.416;2023-05-21T07:56:09;9.93;;;8.90;;
27495;SDS011;14929;51.336;9.416;2023-05-21T07:58:38;11.45;;;10.18;;
27495;SDS011;14929;51.336;9.416;2023-05-21T08:01:07;11.18;;;10.07;;
27495;SDS011;14929;51.336;9.416;2023-05-21T08:03:35;11.55;;;10.40;;
27495;SDS011;14929;51.336;9.416;2023-05-21T08:06:03;11.07;;;10.07;;
27495;SDS011;14929;51.336;9.416;2023-05-21T08:08:30;10.95;;;9.82;;
27495;SDS011;14929;51.336;9.416;2023-05-21T08:10:58;10.95;;;9.75;;
27495;SDS011;14929;51.336;9.416;2023-05-21T08:13:25;11.57;;;10.40;;
27495;SDS011;14929;51.336;9.416;2023-05-21T08:15:54;11.48;;;10.30;;
27495;SDS011;14929;51.336;9.416;2023-05-21T08:18:22;11.32;;;10.30;;
27495;SDS011;14929;51.336;9.416;2023-05-21T08:20:49;12.23;;;11.13;;
27495;SDS011;14929;51.336;9.416;2023-05-21T08:23:16;10.43;;;9.43;;
27495;SDS011;14929;51.336;9.416;2023-05-21T08:25:44;9.30;;;8.07;;
27495;SDS011;14929;51.336;9.416;2023-05-21T08:28:11;10.30;;;9.32;;
27495;SDS011;14929;51.336;9.416;2023-05-21T08:30:39;9.70;;;8.75;;
27495;SDS011;14929;51.336;9.416;2023-05-21T08:33:08;9.32;;;8.45;;
27495;SDS011;14929;51.336;9.416;2023-05-21T08:35:35;9.10;;;8.20;;
27495;SDS011;14929;51.336;9.416;2023-05-21T08:38:03;11.68;;;10.57;;
27495;SDS011;14929;51.336;9.416;2023-05-21T08:40:30;12.07;;;10.80;;
27495;SDS011;14929;51.336;9.416;2023-05-21T08:42:57;9.52;;;8.73;;
27495;SDS011;14929;51.336;9.416;2023-05-21T08:45:25;11.52;;;10.40;;
27495;SDS011;14929;51.336;9.416;2023-05-21T08:47:54;10.80;;;9.82;;
27495;SDS011;14929;51.336;9.416;2023-05-21T08:50:25;9.88;;;8.88;;
27495;SDS011;14929;51.336;9.416;2023-05-21T08:52:53;8.38;;;7.68;;
27495;SDS011;14929;51.336;9.416;2023-05-21T08:55:23;9.60;;;8.75;;
27495;SDS011;14929;51.336;9.416;2023-05-21T08:57:51;9.50;;;8.60;;
27495;SDS011;14929;51.336;9.416;2023-05-21T09:00:19;8.80;;;7.93;;
27495;SDS011;14929;51.336;9.416;2023-05-21T09:02:48;10.55;;;9.63;;
27495;SDS011;14929;51.336;9.416;2023-05-21T09:05:18;9.90;;;8.90;;
27495;SDS011;14929;51.336;9.416;2023-05-21T09:07:49;10.88;;;9.98;;
27495;SDS011;14929;51.336;9.416;2023-05-21T09:10:21;9.23;;;8.30;;
27495;SDS011;14929;51.336;9.416;2023-05-21T09:12:52;9.60;;;8.73;;
27495;SDS011;14929;51.336;9.416;2023-05-21T09:15:19;10.98;;;9.85;;
27495;SDS011;14929;51.336;9.416;2023-05-21T09:17:47;11.18;;;10.27;;
27495;SDS011;14929;51.336;9.416;2023-05-21T09:20:15;9.15;;;8.32;;
27495;SDS011;14929;51.336;9.416;2023-05-21T09:22:43;7.35;;;6.75;;
27495;SDS011;14929;51.336;9.416;2023-05-21T09:25:14;8.05;;;7.35;;
27495;SDS011;14929;51.336;9.416;2023-05-21T09:27:42;10.20;;;9.38;;
27495;SDS011;14929;51.336;9.416;2023-05-21T09:30:11;8.82;;;7.97;;
27495;SDS011;14929;51.336;9.416;2023-05-21T09:32:40;9.43;;;7.97;;
27495;SDS011;14929;51.336;9.416;2023-05-21T09:35:10;9.00;;;8.20;;
27495;SDS011;14929;51.336;9.416;2023-05-21T09:37:38;9.20;;;8.48;;
27495;SDS011;14929;51.336;9.416;2023-05-21T09:40:13;7.75;;;7.00;;
27495;SDS011;14929;51.336;9.416;2023-05-21T09:42:42;10.68;;;9.75;;
27495;SDS011;14929;51.336;9.416;2023-05-21T09:45:11;8.45;;;7.75;;
27495;SDS011;14929;51.336;9.416;2023-05-21T09:47:43;9.88;;;8.95;;
27495;SDS011;14929;51.336;9.416;2023-05-21T09:50:11;9.05;;;8.23;;
27495;SDS011;14929;51.336;9.416;2023-05-21T09:52:41;9.35;;;8.45;;
27495;SDS011;14929;51.336;9.416;2023-05-21T09:55:09;8.20;;;7.50;;
27495;SDS011;14929;51.336;9.416;2023-05-21T09:57:39;8.77;;;7.97;;
27495;SDS011;14929;51.336;9.416;2023-05-21T10:00:08;7.85;;;7.20;;
27495;SDS011;14929;51.336;9.416;2023-05-21T10:02:43;8.52;;;7.82;;
27495;SDS011;14929;51.336;9.416;2023-05-21T10:05:12;11.68;;;10.57;;
27495;SDS011;14929;51.336;9.416;2023-05-21T10:07:41;11.07;;;9.93;;
27495;SDS011;14929;51.336;9.416;2023-05-21T10:10:15;10.00;;;8.55;;
27495;SDS011;14929;51.336;9.416;2023-05-21T10:12:46;10.35;;;9.38;;
27495;SDS011;14929;51.336;9.416;2023-05-21T10:15:21;9.90;;;9.00;;
27495;SDS011;14929;51.336;9.416;2023-05-21T10:17:49;9.20;;;8.40;;
27495;SDS011;14929;51.336;9.416;2023-05-21T10:20:19;10.68;;;9.77;;
27495;SDS011;14929;51.336;9.416;2023-05-21T10:22:49;10.10;;;9.20;;
27495;SDS011;14929;51.336;9.416;2023-05-21T10:25:18;7.45;;;6.82;;
27495;SDS011;14929;51.336;9.416;2023-05-21T10:27:46;8.20;;;7.47;;
27495;SDS011;14929;51.336;9.416;2023-05-21T10:30:14;9.55;;;8.65;;
27495;SDS011;14929;51.336;9.416;2023-05-21T10:32:43;9.70;;;8.82;;
27495;SDS011;14929;51.336;9.416;2023-05-21T10:35:11;9.23;;;8.43;;
27495;SDS011;14929;51.336;9.416;2023-05-21T10:37:41;9.27;;;8.48;;
27495;SDS011;14929;51.336;9.416;2023-05-21T10:40:10;8.43;;;7.72;;
27495;SDS011;14929;51.336;9.416;2023-05-21T10:42:50;9.13;;;8.43;;
27495;SDS011;14929;51.336;9.416;2023-05-21T10:45:52;9.60;;;8.80;;
27495;SDS011;14929;51.336;9.416;2023-05-21T10:48:42;10.02;;;9.13;;
27495;SDS011;14929;51.336;9.416;2023-05-21T10:51:24;7.85;;;7.15;;
27495;SDS011;14929;51.336;9.416;2023-05-21T10:53:57;9.95;;;9.15;;
27495;SDS011;14929;51.336;9.416;2023-05-21T10:56:38;9.43;;;8.63;;
27495;SDS011;14929;51.336;9.416;2023-05-21T10:59:18;10.23;;;9.32;;
27495;SDS011;14929;51.336;9.416;2023-05-21T11:01:57;8.32;;;7.63;;
27495;SDS011;14929;51.336;9.416;2023-05-21T11:04:25;7.65;;;7.05;;
27495;SDS011;14929;51.336;9.416;2023-05-21T11:06:54;9.13;;;8.32;;
27495;SDS011;14929;51.336;9.416;2023-05-21T11:09:21;7.97;;;7.20;;
27495;SDS011;14929;51.336;9.416;2023-05-21T11:11:49;10.63;;;9.77;;
27495;SDS011;14929;51.336;9.416;2023-05-21T11:14:25;11.32;;;10.32;;
27495;SDS011;14929;51.336;9.416;2023-05-21T11:17:07;8.93;;;8.23;;
27495;SDS011;14929;51.336;9.416;2023-05-21T11:19:38;9.10;;;8.30;;
27495;SDS011;14929;51.336;9.416;2023-05-21T11:22:19;9.93;;;9.02;;
27495;SDS011;14929;51.336;9.416;2023-05-21T11:24:48;8.55;;;7.85;;
27495;SDS011;14929;51.336;9.416;2023-05-21T11:27:29;10.15;;;9.23;;
27495;SDS011;14929;51.336;9.416;2023-05-21T11:30:00;9.57;;;8.77;;
27495;SDS011;14929;51.336;9.416;2023-05-21T11:32:31;9.32;;;8.43;;
27495;SDS011;14929;51.336;9.416;2023-05-21T11:35:01;8.80;;;8.00;;
27495;SDS011;14929;51.336;9.416;2023-05-21T11:37:30;9.43;;;8.52;;
27495;SDS011;14929;51.336;9.416;2023-05-21T11:43:00;9.57;;;8.68;;
27495;SDS011;14929;51.336;9.416;2023-05-21T11:45:29;7.97;;;7.38;;
27495;SDS011;14929;51.336;9.416;2023-05-21T11:47:58;9.38;;;8.57;;
27495;SDS011;14929;51.336;9.416;2023-05-21T11:50:26;9.98;;;9.07;;
27495;SDS011;14929;51.336;9.416;2023-05-21T11:52:57;8.13;;;7.43;;
27495;SDS011;14929;51.336;9.416;2023-05-21T11:55:25;9.60;;;8.80;;
27495;SDS011;14929;51.336;9.416;2023-05-21T11:57:53;10.65;;;9.65;;
27495;SDS011;14929;51.336;9.416;2023-05-21T12:00:21;9.05;;;8.25;;
27495;SDS011;14929;51.336;9.416;2023-05-21T12:02:50;8.48;;;7.78;;
27495;SDS011;14929;51.336;9.416;2023-05-21T12:05:19;10.23;;;9.32;;
27495;SDS011;14929;51.336;9.416;2023-05-21T12:07:47;9.20;;;8.40;;
27495;SDS011;14929;51.336;9.416;2023-05-21T12:10:15;10.00;;;9.20;;
27495;SDS011;14929;51.336;9.416;2023-05-21T12:12:45;8.82;;;8.13;;
27495;SDS011;14929;51.336;9.416;2023-05-21T12:15:13;7.68;;;7.07;;
27495;SDS011;14929;51.336;9.416;2023-05-21T12:17:42;9.32;;;8.43;;
27495;SDS011;14929;51.336;9.416;2023-05-21T12:20:11;8.30;;;7.70;;
27495;SDS011;14929;51.336;9.416;2023-05-21T12:22:41;8.80;;;8.00;;
27495;SDS011;14929;51.336;9.416;2023-05-21T12:25:09;9.07;;;8.38;;
27495;SDS011;14929;51.336;9.416;2023-05-21T12:27:37;7.03;;;6.43;;
27495;SDS011;14929;51.336;9.416;2023-05-21T12:30:06;9.77;;;8.98;;
27495;SDS011;14929;51.336;9.416;2023-05-21T12:32:35;9.45;;;8.55;;
27495;SDS011;14929;51.336;9.416;2023-05-21T12:35:08;9.73;;;8.93;;
27495;SDS011;14929;51.336;9.416;2023-05-21T12:37:46;10.68;;;9.80;;
27495;SDS011;14929;51.336;9.416;2023-05-21T12:40:15;8.93;;;8.02;;
27495;SDS011;14929;51.336;9.416;2023-05-21T12:42:43;8.70;;;8.10;;
27495;SDS011;14929;51.336;9.416;2023-05-21T12:45:10;9.65;;;8.93;;
27495;SDS011;14929;51.336;9.416;2023-05-21T12:47:39;8.10;;;7.40;;
27495;SDS011;14929;51.336;9.416;2023-05-21T12:50:07;9.82;;;8.82;;
27495;SDS011;14929;51.336;9.416;2023-05-21T12:52:38;8.60;;;7.88;;
27495;SDS011;14929;51.336;9.416;2023-05-21T12:55:07;9.65;;;8.75;;
27495;SDS011;14929;51.336;9.416;2023-05-21T12:57:37;9.63;;;8.68;;
27495;SDS011;14929;51.336;9.416;2023-05-21T13:00:05;9.13;;;8.40;;
27495;SDS011;14929;51.336;9.416;2023-05-21T13:02:34;10.25;;;9.45;;
27495;SDS011;14929;51.336;9.416;2023-05-21T13:05:05;9.52;;;8.68;;
27495;SDS011;14929;51.336;9.416;2023-05-21T13:07:34;10.60;;;9.57;;
27495;SDS011;14929;51.336;9.416;2023-05-21T13:10:05;7.85;;;7.15;;
27495;SDS011;14929;51.336;9.416;2023-05-21T13:12:34;7.78;;;7.18;;
27495;SDS011;14929;51.336;9.416;2023-05-21T13:15:02;7.88;;;7.25;;
27495;SDS011;14929;51.336;9.416;2023-05-21T13:17:31;8.32;;;7.55;;
27495;SDS011;14929;51.336;9.416;2023-05-21T13:20:06;8.48;;;7.88;;
27495;SDS011;14929;51.336;9.416;2023-05-21T13:22:38;8.02;;;7.32;;
27495;SDS011;14929;51.336;9.416;2023-05-21T13:25:07;7.60;;;7.00;;
27495;SDS011;14929;51.336;9.416;2023-05-21T13:27:35;8.73;;;8.02;;
27495;SDS011;14929;51.336;9.416;2023-05-21T13:30:04;8.88;;;8.15;;
27495;SDS011;14929;51.336;9.416;2023-05-21T13:32:33;7.68;;;7.03;;
27495;SDS011;14929;51.336;9.416;2023-05-21T13:35:02;10.15;;;9.15;;
27495;SDS011;14929;51.336;9.416;2023-05-21T13:37:30;9.52;;;8.68;;
27495;SDS011;14929;51.336;9.416;2023-05-21T13:40:02;7.88;;;7.18;;
27495;SDS011;14929;51.336;9.416;2023-05-21T13:42:30;8.57;;;7.88;;
27495;SDS011;14929;51.336;9.416;2023-05-21T13:44:58;9.73;;;8.85;;
27495;SDS011;14929;51.336;9.416;2023-05-21T13:47:25;7.55;;;6.95;;
27495;SDS011;14929;51.336;9.416;2023-05-21T13:49:53;8.50;;;7.82;;
27495;SDS011;14929;51.336;9.416;2023-05-21T13:52:20;8.60;;;7.88;;
27495;SDS011;14929;51.336;9.416;2023-05-21T13:54:48;7.78;;;7.07;;
27495;SDS011;14929;51.336;9.416;2023-05-21T13:57:16;8.02;;;7.43;;
27495;SDS011;14929;51.336;9.416;2023-05-21T13:59:44;9.60;;;8.70;;
27495;SDS011;14929;51.336;9.416;2023-05-21T14:02:11;8.77;;;8.07;;
27495;SDS011;14929;51.336;9.416;2023-05-21T14:04:39;8.77;;;8.18;;
27495;SDS011;14929;51.336;9.416;2023-05-21T14:07:06;8.63;;;7.93;;
27495;SDS011;14929;51.336;9.416;2023-05-21T14:09:35;9.40;;;8.57;;
27495;SDS011;14929;51.336;9.416;2023-05-21T14:12:02;8.65;;;7.95;;
27495;SDS011;14929;51.336;9.416;2023-05-21T14:14:32;10.98;;;8.35;;
27495;SDS011;14929;51.336;9.416;2023-05-21T14:17:00;8.38;;;7.68;;
27495;SDS011;14929;51.336;9.416;2023-05-21T14:19:27;9.10;;;8.38;;
27495;SDS011;14929;51.336;9.416;2023-05-21T14:21:55;8.48;;;7.85;;
27495;SDS011;14929;51.336;9.416;2023-05-21T14:24:23;8.18;;;7.53;;
27495;SDS011;14929;51.336;9.416;2023-05-21T14:26:51;8.65;;;7.95;;
27495;SDS011;14929;51.336;9.416;2023-05-21T14:29:18;8.52;;;7.75;;
27495;SDS011;14929;51.336;9.416;2023-05-21T14:31:47;7.82;;;7.10;;
27495;SDS011;14929;51.336;9.416;2023-05-21T14:34:14;7.95;;;7.28;;
27495;SDS011;14929;51.336;9.416;2023-05-21T14:36:42;9.20;;;8.30;;
27495;SDS011;14929;51.336;9.416;2023-05-21T14:39:09;7.93;;;7.22;;
27495;SDS011;14929;51.336;9.416;2023-05-21T14:41:37;8.57;;;7.88;;
27495;SDS011;14929;51.336;9.416;2023-05-21T14:44:05;8.77;;;8.07;;
27495;SDS011;14929;51.336;9.416;2023-05-21T14:46:32;9.80;;;8.95;;
27495;SDS011;14929;51.336;9.416;2023-05-21T14:49:01;9.70;;;8.90;;
27495;SDS011;14929;51.336;9.416;2023-05-21T14:51:29;9.65;;;8.68;;
27495;SDS011;14929;51.336;9.416;2023-05-21T14:53:56;9.35;;;8.55;;
27495;SDS011;14929;51.336;9.416;2023-05-21T14:56:25;7.95;;;7.35;;
27495;SDS011;14929;51.336;9.416;2023-05-21T14:58:53;8.93;;;6.85;;